createdAt,value
2023-03-11T00:00:26.807Z,98136.38
2023-03-11T00:02:56.036Z,98131.75
2023-03-11T00:05:28.826Z,98129.24
2023-03-11T00:07:55.827Z,98132.17
2023-03-11T00:10:31.183Z,98134.70
2023-03-11T00:13:01.160Z,98136.54
2023-03-11T00:15:28.592Z,98130.29
2023-03-11T00:17:55.374Z,98131.07
2023-03-11T00:20:28.208Z,98135.18
2023-03-11T00:22:55.821Z,98135.23
2023-03-11T00:25:23.988Z,98135.48
2023-03-11T00:27:50.585Z,98143.90
2023-03-11T00:30:19.660Z,98145.17
2023-03-11T00:32:51.645Z,98143.23
2023-03-11T00:35:23.119Z,98141.65
2023-03-11T00:37:54.264Z,98144.40
2023-03-11T00:40:22.257Z,98138.26
2023-03-11T00:42:48.862Z,98142.10
2023-03-11T00:45:16.255Z,98143.32
2023-03-11T00:47:42.841Z,98135.80
2023-03-11T00:50:15.619Z,98134.74
2023-03-11T00:52:42.249Z,98136.61
2023-03-11T00:55:10.595Z,98141.05
2023-03-11T00:57:37.099Z,98136.06
2023-03-11T01:00:04.163Z,98140.66
2023-03-11T01:02:30.620Z,98136.05
2023-03-11T01:04:57.169Z,98133.92
2023-03-11T01:07:23.818Z,98137.42
2023-03-11T01:09:50.352Z,98139.52
2023-03-11T01:12:16.870Z,98137.39
2023-03-11T01:14:43.873Z,98128.17
2023-03-11T01:17:10.465Z,98125.99
2023-03-11T01:19:36.994Z,98124.34
2023-03-11T01:22:03.550Z,98126.70
2023-03-11T01:24:30.049Z,98127.99
2023-03-11T01:26:56.532Z,98128.43
2023-03-11T01:29:23.078Z,98124.17
2023-03-11T01:31:49.606Z,98121.83
2023-03-11T01:34:16.136Z,98122.61
2023-03-11T01:36:42.622Z,98113.29
2023-03-11T01:39:09.222Z,98122.46
2023-03-11T01:41:35.702Z,98123.10
2023-03-11T01:44:02.455Z,98128.09
2023-03-11T01:46:56.754Z,98129.98
2023-03-11T01:49:23.405Z,98133.52
2023-03-11T01:51:54.432Z,98122.78
2023-03-11T01:54:23.109Z,98119.89
2023-03-11T01:56:50.917Z,98116.27
2023-03-11T01:59:24.285Z,98111.66
2023-03-11T02:02:07.445Z,98118.86
2023-03-11T02:04:36.703Z,98124.48
2023-03-11T02:07:04.660Z,98120.88
2023-03-11T02:09:31.138Z,98114.16
2023-03-11T02:11:58.148Z,98126.80
2023-03-11T02:14:27.704Z,98126.88
2023-03-11T02:16:55.191Z,98129.89
2023-03-11T02:19:59.138Z,98131.02
2023-03-11T02:22:26.880Z,98136.06
2023-03-11T02:25:04.826Z,98131.56
2023-03-11T02:27:33.664Z,98129.42
2023-03-11T02:30:01.011Z,98126.92
2023-03-11T02:32:28.245Z,98111.35
2023-03-11T02:34:54.758Z,98118.28
2023-03-11T02:37:21.292Z,98117.90
2023-03-11T02:39:54.975Z,98123.48
2023-03-11T02:42:32.875Z,98121.41
2023-03-11T02:45:11.003Z,98115.84
2023-03-11T02:47:39.910Z,98114.63
2023-03-11T02:50:09.448Z,98119.20
2023-03-11T02:52:36.352Z,98119.17
2023-03-11T02:55:03.711Z,98117.26
2023-03-11T02:57:30.231Z,98118.48
2023-03-11T02:59:56.773Z,98120.73
2023-03-11T03:02:23.243Z,98121.42
2023-03-11T03:04:49.786Z,98121.74
2023-03-11T03:07:16.313Z,98116.11
2023-03-11T03:09:42.871Z,98124.29
2023-03-11T03:12:09.444Z,98127.77
2023-03-11T03:14:35.908Z,98128.97
2023-03-11T03:17:02.591Z,98126.85
2023-03-11T03:19:29.152Z,98128.50
2023-03-11T03:21:55.638Z,98136.36
2023-03-11T03:24:22.109Z,98148.92
2023-03-11T03:26:48.701Z,98152.55
2023-03-11T03:29:15.222Z,98157.73
2023-03-11T03:31:41.784Z,98156.64
2023-03-11T03:34:08.375Z,98162.89
2023-03-11T03:36:35.236Z,98164.44
2023-03-11T03:39:01.750Z,98163.21
2023-03-11T03:41:28.235Z,98165.30
2023-03-11T03:43:54.718Z,98164.38
2023-03-11T03:46:22.125Z,98171.56
2023-03-11T03:48:49.052Z,98166.29
2023-03-11T03:51:16.026Z,98162.52
2023-03-11T03:53:42.956Z,98164.50
2023-03-11T03:56:16.021Z,98172.13
2023-03-11T03:58:42.619Z,98178.48
2023-03-11T04:01:10.292Z,98180.85
2023-03-11T04:03:37.249Z,98192.05
2023-03-11T04:06:09.351Z,98184.31
2023-03-11T04:08:36.465Z,98181.50
2023-03-11T04:11:03.352Z,98196.64
2023-03-11T04:13:29.880Z,98196.70
2023-03-11T04:15:56.421Z,98208.88
2023-03-11T04:18:22.895Z,98215.13
2023-03-11T04:20:49.578Z,98228.88
2023-03-11T04:23:16.696Z,98235.28
2023-03-11T04:25:43.299Z,98245.16
2023-03-11T04:28:09.804Z,98246.33
2023-03-11T04:30:36.373Z,98250.27
2023-03-11T04:33:02.969Z,98245.67
2023-03-11T04:35:29.464Z,98252.57
2023-03-11T04:37:55.976Z,98252.30
2023-03-11T04:40:22.657Z,98254.29
2023-03-11T04:42:49.168Z,98261.71
2023-03-11T04:45:15.703Z,98260.06
2023-03-11T04:47:42.750Z,98257.73
2023-03-11T04:50:09.764Z,98272.64
2023-03-11T04:52:36.252Z,98264.74
2023-03-11T04:55:02.729Z,98258.63
2023-03-11T04:57:29.261Z,98258.33
2023-03-11T04:59:55.777Z,98264.25
2023-03-11T05:02:22.294Z,98268.50
2023-03-11T05:04:48.988Z,98270.95
2023-03-11T05:07:15.716Z,98271.11
2023-03-11T05:09:42.296Z,98275.42
2023-03-11T05:12:12.098Z,98272.73
2023-03-11T05:14:38.729Z,98273.42
2023-03-11T05:17:05.256Z,98281.77
2023-03-11T05:19:31.957Z,98284.02
2023-03-11T05:21:58.846Z,98280.98
2023-03-11T05:24:25.340Z,98274.70
2023-03-11T05:26:52.236Z,98280.22
2023-03-11T05:29:19.418Z,98278.77
2023-03-11T05:31:46.373Z,98288.28
2023-03-11T05:34:13.494Z,98294.48
2023-03-11T05:36:40.034Z,98307.42
2023-03-11T05:39:06.644Z,98313.21
2023-03-11T05:41:33.148Z,98314.64
2023-03-11T05:43:59.912Z,98313.66
2023-03-11T05:46:26.621Z,98316.86
2023-03-11T05:48:53.209Z,98316.77
2023-03-11T05:51:19.766Z,98322.95
2023-03-11T05:53:48.113Z,98327.54
2023-03-11T05:56:19.389Z,98321.88
2023-03-11T05:58:46.186Z,98323.63
2023-03-11T06:01:15.061Z,98330.21
2023-03-11T06:03:42.306Z,98332.99
2023-03-11T06:06:12.191Z,98331.06
2023-03-11T06:08:39.054Z,98335.06
2023-03-11T06:11:10.776Z,98338.74
2023-03-11T06:13:37.864Z,98341.03
2023-03-11T06:16:04.987Z,98358.77
2023-03-11T06:18:31.520Z,98346.85
2023-03-11T06:20:59.194Z,98346.01
2023-03-11T06:23:26.626Z,98354.58
2023-03-11T06:26:01.083Z,98370.98
2023-03-11T06:28:28.478Z,98376.61
2023-03-11T06:30:55.805Z,98389.32
2023-03-11T06:33:23.708Z,98394.39
2023-03-11T06:36:00.798Z,98395.58
2023-03-11T06:38:27.814Z,98398.04
2023-03-11T06:40:54.457Z,98401.17
2023-03-11T06:43:22.322Z,98412.77
2023-03-11T06:45:48.926Z,98417.45
2023-03-11T06:48:15.449Z,98422.27
2023-03-11T06:50:41.973Z,98429.14
2023-03-11T06:53:08.518Z,98423.55
2023-03-11T06:55:35.976Z,98436.80
2023-03-11T06:58:02.800Z,98441.02
2023-03-11T07:00:29.352Z,98436.37
2023-03-11T07:02:55.811Z,98439.30
2023-03-11T07:05:22.432Z,98442.62
2023-03-11T07:07:48.999Z,98438.98
2023-03-11T07:10:15.524Z,98436.70
2023-03-11T07:12:42.582Z,98450.30
2023-03-11T07:15:10.024Z,98462.02
2023-03-11T07:17:36.551Z,98461.20
2023-03-11T07:20:03.547Z,98466.62
2023-03-11T07:22:30.474Z,98462.06
2023-03-11T07:24:56.977Z,98463.34
2023-03-11T07:27:23.488Z,98465.83
2023-03-11T07:29:50.023Z,98471.84
2023-03-11T07:32:16.677Z,98469.39
2023-03-11T07:34:43.166Z,98474.06
2023-03-11T07:37:09.673Z,98482.08
2023-03-11T07:39:36.466Z,98485.96
2023-03-11T07:42:04.706Z,98485.08
2023-03-11T07:44:31.481Z,98483.59
2023-03-11T07:46:58.193Z,98478.63
2023-03-11T07:49:24.729Z,98468.14
2023-03-11T07:51:51.336Z,98460.63
2023-03-11T07:54:18.413Z,98473.28
2023-03-11T07:56:45.054Z,98470.19
2023-03-11T07:59:11.588Z,98463.79
2023-03-11T08:01:38.209Z,98482.72
2023-03-11T08:04:07.007Z,98484.35
2023-03-11T08:06:35.019Z,98485.59
2023-03-11T08:09:04.313Z,98484.84
2023-03-11T08:11:31.732Z,98477.30
2023-03-11T08:13:58.732Z,98470.86
2023-03-11T08:16:25.981Z,98469.27
2023-03-11T08:18:53.645Z,98476.55
2023-03-11T08:21:23.189Z,98485.52
2023-03-11T08:23:50.149Z,98493.73
2023-03-11T08:26:21.657Z,98494.31
2023-03-11T08:28:49.353Z,98505.39
2023-03-11T08:31:19.456Z,98511.41
2023-03-11T08:33:48.556Z,98514.80
2023-03-11T08:36:15.594Z,98501.67
2023-03-11T08:38:42.255Z,98500.10
2023-03-11T08:41:08.981Z,98498.61
2023-03-11T08:43:35.945Z,98488.36
2023-03-11T08:46:04.552Z,98490.91
2023-03-11T08:48:31.225Z,98493.91
2023-03-11T08:50:57.683Z,98487.41
2023-03-11T08:53:24.944Z,98483.62
2023-03-11T08:55:52.413Z,98482.35
2023-03-11T08:58:20.110Z,98475.83
2023-03-11T09:00:47.282Z,98477.27
2023-03-11T09:03:13.846Z,98474.73
2023-03-11T09:05:41.020Z,98484.77
2023-03-11T09:08:07.646Z,98489.52
2023-03-11T09:10:34.111Z,98500.23
2023-03-11T09:13:00.627Z,98479.13
2023-03-11T09:15:27.322Z,98476.11
2023-03-11T09:17:53.826Z,98466.35
2023-03-11T09:20:22.464Z,98467.14
2023-03-11T09:22:48.950Z,98462.30
2023-03-11T09:25:15.656Z,98468.66
2023-03-11T09:27:42.217Z,98465.48
2023-03-11T09:30:10.225Z,98454.56
2023-03-11T09:32:37.355Z,98456.75
2023-03-11T09:35:04.440Z,98443.18
2023-03-11T09:37:30.974Z,98450.20
2023-03-11T09:39:57.573Z,98458.41
2023-03-11T09:42:53.223Z,98444.44
2023-03-11T09:45:23.721Z,98441.40
2023-03-11T09:48:02.034Z,98444.54
2023-03-11T09:50:37.409Z,98435.05
2023-03-11T09:53:18.882Z,98453.73
2023-03-11T09:55:59.926Z,98472.52
2023-03-11T09:58:49.318Z,98485.55
2023-03-11T10:01:18.679Z,98496.88
2023-03-11T10:03:45.945Z,98509.14
2023-03-11T10:06:16.541Z,98519.38
2023-03-11T10:09:02.868Z,98526.23
2023-03-11T10:11:48.286Z,98547.45
2023-03-11T10:14:29.650Z,98549.48
2023-03-11T10:17:14.836Z,98565.63
2023-03-11T10:19:59.094Z,98565.29
2023-03-11T10:22:35.697Z,98573.23
2023-03-11T10:25:16.338Z,98587.27
2023-03-11T10:27:49.747Z,98589.17
2023-03-11T10:30:27.198Z,98588.74
2023-03-11T10:33:03.145Z,98603.26
2023-03-11T10:35:42.199Z,98613.04
2023-03-11T10:38:26.325Z,98615.98
2023-03-11T10:40:56.217Z,98632.81
2023-03-11T10:43:31.775Z,98626.95
2023-03-11T10:45:59.179Z,98630.11
2023-03-11T10:48:26.087Z,98627.90
2023-03-11T10:51:02.919Z,98629.95
2023-03-11T10:53:30.482Z,98625.52
2023-03-11T10:55:59.374Z,98632.61
2023-03-11T10:58:28.574Z,98637.35
2023-03-11T11:01:01.259Z,98642.74
2023-03-11T11:03:28.422Z,98644.63
2023-03-11T11:06:03.613Z,98631.52
2023-03-11T11:08:30.292Z,98639.10
2023-03-11T11:10:59.525Z,98640.91
2023-03-11T11:13:34.956Z,98627.75
2023-03-11T11:16:17.561Z,98617.05
2023-03-11T11:18:57.779Z,98608.89
2023-03-11T11:21:33.142Z,98599.48
2023-03-11T11:24:16.733Z,98599.92
2023-03-11T11:27:02.667Z,98597.24
2023-03-11T11:29:29.219Z,98609.61
2023-03-11T11:32:15.985Z,98617.09
2023-03-11T11:34:43.031Z,98612.67
2023-03-11T11:37:13.692Z,98630.05
2023-03-11T11:39:48.630Z,98631.48
2023-03-11T11:42:15.179Z,98640.38
2023-03-11T11:44:43.761Z,98644.40
2023-03-11T11:47:18.439Z,98642.39
2023-03-11T11:49:53.023Z,98646.88
2023-03-11T11:52:28.356Z,98653.63
2023-03-11T11:55:00.898Z,98656.63
2023-03-11T11:57:27.735Z,98663.31
2023-03-11T11:59:57.318Z,98667.25
2023-03-11T12:02:33.148Z,98655.16
2023-03-11T12:05:28.851Z,98656.27
2023-03-11T12:08:07.163Z,98663.37
2023-03-11T12:10:59.832Z,98666.07
2023-03-11T12:13:35.375Z,98675.70
2023-03-11T12:16:05.841Z,98670.25
2023-03-11T12:18:41.882Z,98676.27
2023-03-11T12:21:46.292Z,98677.61
2023-03-11T12:24:27.159Z,98695.05
2023-03-11T12:26:58.365Z,98690.39
2023-03-11T12:29:38.847Z,98698.04
2023-03-11T12:32:06.599Z,98710.19
2023-03-11T12:34:35.935Z,98713.45
2023-03-11T12:37:02.698Z,98716.36
2023-03-11T12:39:34.118Z,98724.73
2023-03-11T12:42:22.776Z,98733.42
2023-03-11T12:44:49.785Z,98735.40
2023-03-11T12:47:22.081Z,98741.23
2023-03-11T12:49:54.324Z,98753.76
2023-03-11T12:52:28.985Z,98744.50
2023-03-11T12:54:55.415Z,98746.98
2023-03-11T12:57:21.836Z,98744.95
2023-03-11T12:59:57.314Z,98751.52
2023-03-11T13:02:44.924Z,98755.35
2023-03-11T13:05:35.745Z,98765.46
2023-03-11T13:08:23.624Z,98766.86
2023-03-11T13:10:52.774Z,98769.45
2023-03-11T13:13:25.136Z,98792.38
2023-03-11T13:15:52.755Z,98800.72
2023-03-11T13:18:31.308Z,98797.90
2023-03-11T13:21:01.993Z,98809.73
2023-03-11T13:23:31.368Z,98806.98
2023-03-11T13:26:10.049Z,98816.45
2023-03-11T13:28:55.184Z,98809.91
2023-03-11T13:31:27.589Z,98808.73
2023-03-11T13:34:13.003Z,98815.98
2023-03-11T13:36:51.383Z,98822.31
2023-03-11T13:39:33.122Z,98821.46
2023-03-11T13:41:59.648Z,98818.09
2023-03-11T13:44:29.754Z,98828.80
2023-03-11T13:47:13.900Z,98827.14
2023-03-11T13:49:44.460Z,98831.57
2023-03-11T13:52:51.192Z,98824.31
2023-03-11T13:55:30.737Z,98827.67
2023-03-11T13:57:58.037Z,98840.75
2023-03-11T14:00:30.050Z,98838.16
2023-03-11T14:02:59.585Z,98846.36
2023-03-11T14:05:30.319Z,98847.00
2023-03-11T14:08:31.790Z,98851.52
2023-03-11T14:11:03.858Z,98859.48
2023-03-11T14:13:32.466Z,98875.25
2023-03-11T14:16:22.608Z,98877.63
2023-03-11T14:19:15.065Z,98884.70
2023-03-11T14:21:43.209Z,98892.02
2023-03-11T14:24:17.403Z,98903.81
2023-03-11T14:26:45.141Z,98903.02
2023-03-11T14:29:17.538Z,98898.19
2023-03-11T14:31:45.449Z,98901.00
2023-03-11T14:34:23.387Z,98895.83
2023-03-11T14:36:53.907Z,98896.58
2023-03-11T14:39:24.213Z,98893.85
2023-03-11T14:41:53.767Z,98893.36
2023-03-11T14:44:22.611Z,98893.95
2023-03-11T14:46:52.008Z,98891.73
2023-03-11T14:49:23.148Z,98892.96
2023-03-11T14:51:58.534Z,98902.54
2023-03-11T14:54:29.628Z,98907.37
2023-03-11T14:57:10.634Z,98921.85
2023-03-11T14:59:38.697Z,98929.72
2023-03-11T15:03:04.506Z,98936.23
2023-03-11T15:05:43.844Z,98952.95
2023-03-11T15:08:10.641Z,98967.99
2023-03-11T15:10:37.292Z,98971.21
2023-03-11T15:13:17.379Z,98975.61
2023-03-11T15:15:43.948Z,99000.41
2023-03-11T15:18:23.486Z,98989.05
2023-03-11T15:21:14.646Z,98998.20
2023-03-11T15:23:49.912Z,98996.19
2023-03-11T15:26:29.318Z,98989.77
2023-03-11T15:29:11.822Z,99001.63
2023-03-11T15:31:39.574Z,99004.49
2023-03-11T15:34:10.929Z,99008.71
2023-03-11T15:36:39.965Z,99016.10
2023-03-11T15:39:17.159Z,99013.69
2023-03-11T15:41:58.111Z,99014.06
2023-03-11T15:44:39.738Z,99009.80
2023-03-11T15:47:13.901Z,99010.63
2023-03-11T15:49:40.397Z,99016.33
2023-03-11T15:52:07.105Z,99023.82
2023-03-11T15:54:33.606Z,99029.88
2023-03-11T15:57:01.096Z,99034.65
2023-03-11T15:59:29.456Z,99037.86
2023-03-11T16:01:56.077Z,99050.23
2023-03-11T16:04:22.887Z,99056.18
2023-03-11T16:06:59.485Z,99063.52
2023-03-11T16:09:33.276Z,99075.91
2023-03-11T16:12:01.097Z,99069.66
2023-03-11T16:14:27.613Z,99071.23
2023-03-11T16:16:54.084Z,99078.89
2023-03-11T16:19:20.556Z,99075.95
2023-03-11T16:21:48.856Z,99090.74
2023-03-11T16:24:20.746Z,99093.54
2023-03-11T16:26:47.242Z,99097.69
2023-03-11T16:29:19.403Z,99105.87
2023-03-11T16:31:46.950Z,99107.95
2023-03-11T16:34:13.472Z,99107.60
2023-03-11T16:36:39.996Z,99109.33
2023-03-11T16:39:06.663Z,99116.64
2023-03-11T16:41:44.542Z,99121.65
2023-03-11T16:44:11.674Z,99121.98
2023-03-11T16:46:38.638Z,99127.00
2023-03-11T16:49:05.487Z,99133.60
2023-03-11T16:51:32.627Z,99140.89
2023-03-11T16:53:59.360Z,99150.25
2023-03-11T16:56:25.864Z,99153.88
2023-03-11T16:58:52.963Z,99154.05
2023-03-11T17:01:19.640Z,99160.80
2023-03-11T17:03:46.131Z,99170.49
2023-03-11T17:06:12.611Z,99172.58
2023-03-11T17:08:39.222Z,99177.77
2023-03-11T17:11:13.673Z,99181.95
2023-03-11T17:13:40.173Z,99184.37
2023-03-11T17:16:07.029Z,99193.19
2023-03-11T17:18:33.543Z,99194.05
2023-03-11T17:21:00.040Z,99208.11
2023-03-11T17:23:26.573Z,99209.12
2023-03-11T17:25:53.033Z,99216.56
2023-03-11T17:28:19.569Z,99221.90
2023-03-11T17:30:46.069Z,99223.27
2023-03-11T17:33:12.578Z,99226.02
2023-03-11T17:35:39.163Z,99232.23
2023-03-11T17:38:05.679Z,99235.66
2023-03-11T17:40:32.310Z,99239.45
2023-03-11T17:42:59.020Z,99243.05
2023-03-11T17:45:25.653Z,99237.65
2023-03-11T17:47:52.217Z,99243.50
2023-03-11T17:50:18.821Z,99248.49
2023-03-11T17:52:48.050Z,99253.32
2023-03-11T17:55:14.552Z,99257.29
2023-03-11T17:57:45.574Z,99260.04
2023-03-11T18:00:13.554Z,99272.34
2023-03-11T18:02:40.082Z,99274.07
2023-03-11T18:05:07.281Z,99285.16
2023-03-11T18:07:36.074Z,99285.33
2023-03-11T18:10:02.533Z,99292.61
2023-03-11T18:12:29.004Z,99296.57
2023-03-11T18:14:55.565Z,99299.84
2023-03-11T18:17:22.051Z,99301.73
2023-03-11T18:19:48.534Z,99308.80
2023-03-11T18:22:15.147Z,99310.15
2023-03-11T18:24:41.693Z,99314.63
2023-03-11T18:27:08.189Z,99317.38
2023-03-11T18:29:34.657Z,99313.88
2023-03-11T18:32:01.222Z,99325.29
2023-03-11T18:34:27.767Z,99330.14
2023-03-11T18:36:54.232Z,99333.09
2023-03-11T18:39:20.741Z,99338.98
2023-03-11T18:41:47.265Z,99333.25
2023-03-11T18:44:13.755Z,99343.79
2023-03-11T18:46:40.246Z,99348.46
2023-03-11T18:49:06.744Z,99352.44
2023-03-11T18:51:33.337Z,99358.68
2023-03-11T18:54:01.109Z,99359.89
2023-03-11T18:56:28.154Z,99364.41
2023-03-11T18:58:54.822Z,99362.65
2023-03-11T19:01:22.116Z,99368.89
2023-03-11T19:03:51.377Z,99371.12
2023-03-11T19:06:18.036Z,99372.80
2023-03-11T19:08:44.712Z,99375.38
2023-03-11T19:11:14.612Z,99376.55
2023-03-11T19:13:46.940Z,99381.55
2023-03-11T19:16:15.353Z,99386.39
2023-03-11T19:18:41.881Z,99390.86
2023-03-11T19:21:10.673Z,99395.88
2023-03-11T19:23:37.341Z,99402.09
2023-03-11T19:26:04.059Z,99405.19
2023-03-11T19:28:30.664Z,99403.94
2023-03-11T19:30:58.876Z,99400.96
2023-03-11T19:33:26.648Z,99403.71
2023-03-11T19:35:58.448Z,99397.74
2023-03-11T19:38:26.082Z,99402.70
2023-03-11T19:41:03.742Z,99407.30
2023-03-11T19:43:31.094Z,99406.04
2023-03-11T19:45:57.771Z,99405.98
2023-03-11T19:48:24.624Z,99410.61
2023-03-11T19:50:51.876Z,99411.42
2023-03-11T19:53:19.756Z,99410.69
2023-03-11T19:55:49.665Z,99410.61
2023-03-11T19:58:16.226Z,99407.79
2023-03-11T20:00:43.903Z,99407.93
2023-03-11T20:03:12.375Z,99412.02
2023-03-11T20:05:41.937Z,99416.98
2023-03-11T20:08:10.446Z,99411.58
2023-03-11T20:10:38.603Z,99411.52
2023-03-11T20:13:05.671Z,99402.14
2023-03-11T20:15:32.265Z,99392.40
2023-03-11T20:17:58.844Z,99386.13
2023-03-11T20:20:25.567Z,99387.27
2023-03-11T20:22:52.067Z,99389.63
2023-03-11T20:25:18.657Z,99397.90
2023-03-11T20:27:45.218Z,99399.06
2023-03-11T20:30:13.031Z,99397.46
2023-03-11T20:32:39.975Z,99402.42
2023-03-11T20:35:07.094Z,99402.75
2023-03-11T20:37:33.591Z,99409.46
2023-03-11T20:40:00.158Z,99408.73
2023-03-11T20:42:26.729Z,99415.60
2023-03-11T20:44:54.299Z,99414.00
2023-03-11T20:47:21.560Z,99422.60
2023-03-11T20:49:48.228Z,99433.64
2023-03-11T20:52:15.592Z,99440.52
2023-03-11T20:54:42.114Z,99443.40
2023-03-11T20:57:08.870Z,99452.16
2023-03-11T20:59:35.429Z,99450.41
2023-03-11T21:02:01.986Z,99447.05
2023-03-11T21:04:28.678Z,99439.41
2023-03-11T21:06:55.381Z,99432.29
2023-03-11T21:09:22.078Z,99432.58
2023-03-11T21:11:48.719Z,99440.81
2023-03-11T21:14:17.794Z,99437.65
2023-03-11T21:16:45.665Z,99440.21
2023-03-11T21:19:13.083Z,99445.35
2023-03-11T21:21:39.735Z,99451.84
2023-03-11T21:24:06.828Z,99470.30
2023-03-11T21:26:34.684Z,99474.44
2023-03-11T21:29:01.535Z,99498.45
2023-03-11T21:31:29.593Z,99504.49
2023-03-11T21:33:58.528Z,99504.11
2023-03-11T21:36:25.500Z,99504.10
2023-03-11T21:38:52.306Z,99504.27
2023-03-11T21:41:24.828Z,99494.22
2023-03-11T21:43:53.222Z,99484.19
2023-03-11T21:46:23.355Z,99482.42
2023-03-11T21:48:50.873Z,99485.83
2023-03-11T21:51:18.966Z,99485.29
2023-03-11T21:53:45.761Z,99491.16
2023-03-11T21:56:13.227Z,99499.82
2023-03-11T21:58:40.328Z,99503.80
2023-03-11T22:01:08.461Z,99499.62
2023-03-11T22:03:36.583Z,99495.80
2023-03-11T22:06:06.762Z,99507.55
2023-03-11T22:08:33.692Z,99504.77
2023-03-11T22:11:00.460Z,99506.31
2023-03-11T22:13:27.213Z,99509.27
2023-03-11T22:15:53.908Z,99515.52
2023-03-11T22:18:20.794Z,99520.01
2023-03-11T22:20:47.349Z,99522.45
2023-03-11T22:23:14.192Z,99524.85
2023-03-11T22:25:40.701Z,99532.10
2023-03-11T22:28:07.275Z,99533.81
2023-03-11T22:30:33.810Z,99535.91
2023-03-11T22:33:00.273Z,99548.52
2023-03-11T22:35:26.762Z,99562.17
2023-03-11T22:37:53.277Z,99563.23
2023-03-11T22:40:19.845Z,99571.70
2023-03-11T22:42:46.303Z,99573.56
2023-03-11T22:45:12.905Z,99578.56
2023-03-11T22:47:39.391Z,99587.02
2023-03-11T22:50:06.456Z,99596.65
2023-03-11T22:52:32.940Z,99601.80
2023-03-11T22:54:59.409Z,99607.05
2023-03-11T22:57:25.890Z,99604.59
2023-03-11T22:59:52.435Z,99595.23
2023-03-11T23:02:18.931Z,99607.10
2023-03-11T23:04:45.604Z,99613.45
2023-03-11T23:07:12.636Z,99614.61
2023-03-11T23:09:39.192Z,99609.70
2023-03-11T23:12:05.866Z,99613.98
2023-03-11T23:14:44.233Z,99613.40
2023-03-11T23:17:11.869Z,99606.95
2023-03-11T23:19:38.408Z,99602.41
2023-03-11T23:22:05.066Z,99615.30
2023-03-11T23:24:31.567Z,99627.85
2023-03-11T23:26:58.030Z,99634.02
2023-03-11T23:29:24.572Z,99636.56
2023-03-11T23:31:51.062Z,99641.17
2023-03-11T23:34:17.682Z,99647.52
2023-03-11T23:36:44.177Z,99648.90
2023-03-11T23:39:10.636Z,99653.05
2023-03-11T23:41:37.100Z,99653.92
2023-03-11T23:44:04.250Z,99654.77
2023-03-11T23:46:30.998Z,99661.30
2023-03-11T23:48:57.480Z,99665.73
2023-03-11T23:51:24.031Z,99675.35
2023-03-11T23:53:50.524Z,99679.67
2023-03-11T23:56:18.685Z,99689.68
2023-03-11T23:58:46.140Z,99698.34
